Time;durP1;ratioP1;P1;durP2;ratioP2;P2;SDS_P1;SDS_P2;PMS_P1;PMS_P2;Temp;Humidity;BMP_temperature;BMP_pressure;BME280_temperature;BME280_humidity;BME280_pressure;Samples;Min_cycle;Max_cycle;Signal;HPM_P1;HPM_P2
2022/07/21 00:00:31;;;;;;;14.32;8.68;;;18.70;99.90;;;;;;5051117;28;20060;-58
2022/07/21 00:02:58;;;;;;;15.90;8.43;;;18.80;99.90;;;;;;5057412;28;20127;-60
2022/07/21 00:05:25;;;;;;;13.95;8.73;;;18.70;99.90;;;;;;5057915;28;20063;-60
2022/07/21 00:07:52;;;;;;;10.98;7.55;;;18.70;99.90;;;;;;5056697;28;20045;-59
2022/07/21 00:10:19;;;;;;;12.10;7.43;;;18.70;99.90;;;;;;5054472;28;20044;-59
2022/07/21 00:12:45;;;;;;;14.88;8.55;;;18.70;99.90;;;;;;5060279;28;20036;-59
2022/07/21 00:15:13;;;;;;;12.63;8.25;;;18.70;99.90;;;;;;5057395;28;20066;-59
2022/07/21 00:17:39;;;;;;;12.07;8.25;;;18.60;99.90;;;;;;5069906;28;20032;-60
2022/07/21 00:20:06;;;;;;;14.70;8.38;;;18.70;99.90;;;;;;5056203;28;20495;-59
2022/07/21 00:22:32;;;;;;;15.02;7.85;;;18.70;99.90;;;;;;5056068;28;20037;-58
2022/07/21 00:24:58;;;;;;;16.77;8.90;;;18.70;99.90;;;;;;5051334;28;20033;-59
2022/07/21 00:27:25;;;;;;;17.88;9.10;;;18.80;99.90;;;;;;5058977;28;20128;-59
2022/07/21 00:29:50;;;;;;;18.05;9.30;;;18.80;99.90;;;;;;5054702;28;20552;-60
2022/07/21 00:32:16;;;;;;;19.60;9.15;;;18.70;99.90;;;;;;5057075;28;20127;-59
2022/07/21 00:34:42;;;;;;;19.58;9.27;;;18.70;99.90;;;;;;5055558;28;20044;-59
2022/07/21 00:37:08;;;;;;;17.52;10.00;;;18.60;99.90;;;;;;5050832;28;20701;-59
2022/07/21 00:39:34;;;;;;;16.33;10.00;;;18.50;99.90;;;;;;5058392;28;20042;-61
2022/07/21 00:42:00;;;;;;;15.00;10.13;;;18.50;99.90;;;;;;5064879;28;20044;-59
2022/07/21 00:44:27;;;;;;;19.33;10.27;;;18.50;99.90;;;;;;5057760;28;20051;-59
2022/07/21 00:46:53;;;;;;;18.17;10.10;;;18.40;99.90;;;;;;5064837;28;20127;-59
2022/07/21 00:49:20;;;;;;;18.38;9.75;;;18.40;99.90;;;;;;5055919;28;20036;-60
2022/07/21 00:51:47;;;;;;;21.35;11.35;;;18.50;99.90;;;;;;5053168;28;20123;-61
2022/07/21 00:54:15;;;;;;;21.75;11.43;;;18.50;99.90;;;;;;5051676;28;20389;-60
2022/07/21 00:56:41;;;;;;;19.77;11.77;;;18.50;99.90;;;;;;5057017;28;20548;-60
2022/07/21 00:59:06;;;;;;;16.73;10.73;;;18.50;99.90;;;;;;5049174;28;20087;-60
2022/07/21 01:01:32;;;;;;;20.77;11.93;;;18.40;99.90;;;;;;5055925;28;20061;-60
2022/07/21 01:03:58;;;;;;;24.90;12.98;;;18.40;99.90;;;;;;5053933;28;20106;-62
2022/07/21 01:06:27;;;;;;;23.67;13.02;;;18.40;99.90;;;;;;5049835;28;20040;-61
2022/07/21 01:08:53;;;;;;;23.60;12.68;;;18.30;99.90;;;;;;5052285;28;20095;-61
2022/07/21 01:11:23;;;;;;;24.02;13.48;;;18.30;99.90;;;;;;5056030;28;20029;-62
2022/07/21 01:13:49;;;;;;;27.02;13.43;;;18.30;99.90;;;;;;5052539;28;20044;-61
2022/07/21 01:16:14;;;;;;;24.90;12.27;;;18.30;99.90;;;;;;5033984;28;20485;-61
2022/07/21 01:18:40;;;;;;;25.40;13.75;;;18.20;99.90;;;;;;5056713;28;20040;-60
2022/07/21 01:21:21;;;;;;;24.92;12.43;;;18.20;99.90;;;;;;5061683;28;20040;-60
2022/07/21 01:23:46;;;;;;;21.98;11.77;;;18.20;99.90;;;;;;5051224;28;20109;-60
2022/07/21 01:26:12;;;;;;;26.70;14.05;;;18.20;99.90;;;;;;5058460;28;20044;-61
2022/07/21 01:28:37;;;;;;;27.70;13.18;;;18.20;99.90;;;;;;5050078;28;20639;-61
2022/07/21 01:31:03;;;;;;;22.98;12.88;;;18.20;99.90;;;;;;5050905;28;20389;-62
2022/07/21 01:33:29;;;;;;;52.33;14.77;;;18.20;99.90;;;;;;5041886;28;20040;-61
2022/07/21 01:35:54;;;;;;;34.50;14.70;;;18.10;99.90;;;;;;5051512;28;20152;-60
2022/07/21 01:43:48;;;;;;;37.90;15.40;;;18.10;99.90;;;;;;5057518;28;20073;-59
2022/07/21 01:46:14;;;;;;;24.75;14.02;;;18.00;99.90;;;;;;5050537;28;20132;-58
2022/07/21 01:48:44;;;;;;;24.25;14.07;;;17.90;99.90;;;;;;5044721;28;20554;-59
2022/07/21 01:51:10;;;;;;;27.83;14.18;;;17.90;99.90;;;;;;5050563;28;20040;-59
2022/07/21 01:53:36;;;;;;;26.90;14.43;;;18.20;99.90;;;;;;5063573;28;20041;-59
2022/07/21 01:56:01;;;;;;;27.98;13.77;;;18.20;99.90;;;;;;5056593;28;20089;-61
2022/07/21 01:58:27;;;;;;;25.80;13.38;;;18.10;99.90;;;;;;5053439;28;20046;-59
2022/07/21 02:00:52;;;;;;;25.58;14.18;;;18.20;99.90;;;;;;5060170;28;20044;-58
2022/07/21 02:03:18;;;;;;;23.55;13.75;;;18.30;99.90;;;;;;5055471;28;20078;-60
2022/07/21 02:05:44;;;;;;;23.55;14.27;;;18.30;99.90;;;;;;5057696;28;20033;-58
2022/07/21 02:08:09;;;;;;;23.70;13.45;;;17.90;99.90;;;;;;5048575;28;20501;-61
2022/07/21 02:10:35;;;;;;;28.27;15.00;;;18.00;99.90;;;;;;5060619;28;20112;-59
2022/07/21 02:13:03;;;;;;;29.33;13.70;;;18.30;99.90;;;;;;5047178;28;20052;-60
2022/07/21 02:15:30;;;;;;;31.20;14.85;;;18.20;99.90;;;;;;5052787;28;20045;-58
2022/07/21 02:17:57;;;;;;;28.15;14.80;;;17.80;99.90;;;;;;5056866;28;20048;-61
2022/07/21 02:20:23;;;;;;;24.95;14.65;;;18.40;99.90;;;;;;5052618;28;20044;-59
2022/07/21 02:22:48;;;;;;;30.52;14.85;;;17.90;99.90;;;;;;5065167;28;20052;-59
2022/07/21 02:25:14;;;;;;;28.02;15.68;;;18.50;99.90;;;;;;5052655;28;20033;-59
2022/07/21 02:27:41;;;;;;;25.05;14.73;;;18.40;99.90;;;;;;5037053;28;20049;-59
2022/07/21 02:30:07;;;;;;;30.35;16.15;;;17.70;99.90;;;;;;5046979;28;20047;-59
2022/07/21 02:32:33;;;;;;;25.73;14.35;;;17.70;99.90;;;;;;5051559;28;20076;-59
2022/07/21 02:34:58;;;;;;;27.13;15.85;;;18.30;99.90;;;;;;5047754;28;20060;-61
2022/07/21 02:37:24;;;;;;;25.90;15.85;;;18.40;99.90;;;;;;5046650;28;20481;-58
2022/07/21 02:39:50;;;;;;;24.90;15.30;;;18.30;99.90;;;;;;5048549;28;20096;-59
2022/07/21 02:42:15;;;;;;;28.95;16.13;;;18.40;99.90;;;;;;5061995;28;20041;-59
2022/07/21 02:44:41;;;;;;;24.88;14.93;;;18.00;99.90;;;;;;5046342;28;20064;-59
2022/07/21 02:47:06;;;;;;;22.70;14.00;;;18.10;99.90;;;;;;5045282;28;20060;-58
2022/07/21 02:49:32;;;;;;;26.98;14.88;;;18.20;99.90;;;;;;5052062;28;20029;-58
2022/07/21 02:51:58;;;;;;;23.38;15.75;;;17.80;99.90;;;;;;5046430;28;20459;-60
2022/07/21 02:54:23;;;;;;;26.92;16.02;;;18.20;99.90;;;;;;5052054;28;20033;-59
2022/07/21 02:56:49;;;;;;;28.55;15.98;;;18.00;99.90;;;;;;5049087;28;20099;-61
2022/07/21 02:59:14;;;;;;;25.20;14.95;;;18.00;99.90;;;;;;5051855;28;20044;-59
2022/07/21 03:01:40;;;;;;;25.52;14.50;;;18.00;99.90;;;;;;5063159;28;20081;-58
2022/07/21 03:04:06;;;;;;;25.75;15.95;;;18.00;99.90;;;;;;5059783;28;20045;-60
2022/07/21 03:06:32;;;;;;;23.40;14.60;;;18.10;99.90;;;;;;5060861;28;20625;-59
2022/07/21 03:08:58;;;;;;;28.90;15.38;;;17.70;99.90;;;;;;5048323;28;20033;-60
2022/07/21 03:11:23;;;;;;;32.33;16.65;;;18.40;99.90;;;;;;5054835;28;20032;-59
2022/07/21 03:13:49;;;;;;;25.42;15.85;;;17.70;99.90;;;;;;5057233;28;20052;-58
2022/07/21 03:16:15;;;;;;;28.52;16.05;;;17.80;99.90;;;;;;5065409;28;20076;-59
2022/07/21 03:18:41;;;;;;;26.05;15.90;;;18.00;99.90;;;;;;5056393;28;20065;-58
2022/07/21 03:21:07;;;;;;;28.35;15.95;;;18.30;99.90;;;;;;5055032;28;20040;-59
2022/07/21 03:23:32;;;;;;;23.75;15.50;;;18.10;99.90;;;;;;5067797;28;20040;-58
2022/07/21 03:25:58;;;;;;;22.02;14.20;;;18.30;99.90;;;;;;5059302;28;20086;-59
2022/07/21 03:28:24;;;;;;;27.70;16.33;;;18.00;99.90;;;;;;5055524;28;20075;-58
2022/07/21 03:30:50;;;;;;;26.02;14.30;;;18.30;99.90;;;;;;5061892;28;20480;-58
2022/07/21 03:33:15;;;;;;;22.08;15.15;;;18.10;99.90;;;;;;5054730;28;20033;-58
2022/07/21 03:35:41;;;;;;;27.58;16.90;;;17.60;99.90;;;;;;5052860;28;20040;-58
2022/07/21 03:38:07;;;;;;;30.33;17.38;;;18.00;99.90;;;;;;5057796;28;20044;-57
2022/07/21 03:40:36;;;;;;;32.75;16.85;;;18.20;99.90;;;;;;5062940;28;20101;-60
2022/07/21 03:43:04;;;;;;;32.70;17.88;;;17.70;99.90;;;;;;5050361;28;20045;-58
2022/07/21 03:45:32;;;;;;;28.25;16.52;;;17.60;99.90;;;;;;5055165;28;20059;-59
2022/07/21 03:48:03;;;;;;;32.13;18.08;;;17.60;99.90;;;;;;5056570;28;20052;-58
2022/07/21 03:50:30;;;;;;;32.15;16.95;;;18.20;99.90;;;;;;5059235;28;20068;-60
2022/07/21 03:52:55;;;;;;;30.45;16.33;;;17.60;99.90;;;;;;5054412;28;20068;-58
2022/07/21 03:55:22;;;;;;;33.28;17.77;;;17.90;99.90;;;;;;5049837;28;20072;-59
2022/07/21 03:57:54;;;;;;;33.67;17.85;;;18.30;99.90;;;;;;5056201;28;20374;-59
2022/07/21 04:00:33;;;;;;;31.25;17.40;;;17.60;99.90;;;;;;5050737;28;20041;-59
2022/07/21 04:03:00;;;;;;;28.48;16.85;;;18.30;99.90;;;;;;5054163;28;20063;-58
2022/07/21 04:05:26;;;;;;;30.23;17.40;;;17.90;99.90;;;;;;5055585;28;20123;-58
2022/07/21 04:07:52;;;;;;;32.28;17.00;;;18.20;99.90;;;;;;5059357;28;20048;-58
2022/07/21 04:10:20;;;;;;;30.05;17.15;;;18.40;99.90;;;;;;5051790;28;20035;-60
2022/07/21 04:12:48;;;;;;;33.40;17.15;;;18.40;99.90;;;;;;5050656;28;20156;-59
2022/07/21 04:15:14;;;;;;;27.42;15.77;;;17.70;99.90;;;;;;5064813;28;20048;-60
2022/07/21 04:17:40;;;;;;;25.73;15.98;;;18.40;99.90;;;;;;5058890;28;20039;-59
2022/07/21 04:20:07;;;;;;;26.50;16.27;;;18.00;99.90;;;;;;5054370;28;20657;-57
2022/07/21 04:22:33;;;;;;;29.67;17.13;;;17.80;99.90;;;;;;5066551;28;20051;-58
2022/07/21 04:24:59;;;;;;;25.60;16.00;;;18.20;99.90;;;;;;5066217;28;20040;-60
2022/07/21 04:27:26;;;;;;;27.52;16.70;;;18.20;99.90;;;;;;5054748;28;20588;-58
2022/07/21 04:29:51;;;;;;;26.38;16.77;;;18.20;99.90;;;;;;5056390;28;20109;-58
2022/07/21 04:32:17;;;;;;;28.55;16.58;;;18.30;99.90;;;;;;5051928;28;20481;-59
2022/07/21 04:34:42;;;;;;;29.23;16.70;;;18.30;99.90;;;;;;5048085;28;20388;-59
2022/07/21 04:37:08;;;;;;;28.60;16.67;;;18.00;99.90;;;;;;5054271;28;20068;-58
2022/07/21 04:39:34;;;;;;;32.85;17.88;;;18.40;99.90;;;;;;5053962;28;20032;-60
2022/07/21 04:42:00;;;;;;;30.00;17.95;;;18.50;99.90;;;;;;5053803;28;20041;-58
2022/07/21 04:44:25;;;;;;;33.17;18.55;;;18.00;99.90;;;;;;5058752;28;20037;-60
2022/07/21 04:46:51;;;;;;;40.25;21.17;;;17.90;99.90;;;;;;5060701;28;20059;-58
2022/07/21 04:49:17;;;;;;;32.78;19.90;;;18.00;99.90;;;;;;5050333;28;20134;-59
2022/07/21 04:51:42;;;;;;;35.55;21.92;;;17.90;99.90;;;;;;5051865;28;20033;-59
2022/07/21 04:54:08;;;;;;;42.92;22.20;;;18.00;99.90;;;;;;5050620;28;20388;-59
2022/07/21 04:56:34;;;;;;;41.83;23.13;;;18.50;99.90;;;;;;5058268;28;20169;-59
2022/07/21 04:59:01;;;;;;;39.33;22.65;;;18.60;99.90;;;;;;5045373;28;20048;-58
2022/07/21 05:01:27;;;;;;;49.58;25.95;;;18.20;99.90;;;;;;5053439;28;20032;-59
2022/07/21 05:03:53;;;;;;;38.05;24.38;;;18.20;99.90;;;;;;5050797;28;20044;-59
2022/07/21 05:06:19;;;;;;;43.13;25.17;;;18.40;99.90;;;;;;5044408;28;20441;-60
2022/07/21 05:08:44;;;;;;;49.33;27.60;;;18.40;99.90;;;;;;5050407;28;20037;-59
2022/07/21 05:11:10;;;;;;;49.67;26.88;;;18.50;99.90;;;;;;5054474;28;20109;-59
2022/07/21 05:13:36;;;;;;;51.58;28.05;;;18.50;99.90;;;;;;5056015;28;20032;-59
2022/07/21 05:16:01;;;;;;;48.95;28.65;;;18.10;99.90;;;;;;5069519;28;20052;-59
2022/07/21 05:18:27;;;;;;;51.95;28.13;;;18.60;99.90;;;;;;5063336;28;20041;-59
2022/07/21 05:20:52;;;;;;;44.00;26.52;;;18.30;99.90;;;;;;5059589;28;20427;-59
2022/07/21 05:23:18;;;;;;;41.78;26.80;;;18.40;99.90;;;;;;5060701;28;20063;-58
2022/07/21 05:25:43;;;;;;;44.90;26.05;;;18.30;99.90;;;;;;5051464;28;20033;-57
2022/07/21 05:28:09;;;;;;;48.42;28.98;;;18.60;99.90;;;;;;5055308;28;21829;-59
2022/07/21 05:30:35;;;;;;;44.08;27.10;;;18.40;99.90;;;;;;5050485;28;20078;-58
2022/07/21 05:33:01;;;;;;;42.95;26.38;;;18.70;99.90;;;;;;5071626;28;20045;-59
2022/07/21 05:35:26;;;;;;;56.28;28.63;;;18.80;99.90;;;;;;5058922;28;20043;-59
2022/07/21 05:37:52;;;;;;;44.53;28.00;;;18.90;99.90;;;;;;5051729;28;20384;-60
2022/07/21 05:40:17;;;;;;;46.78;28.50;;;18.70;99.90;;;;;;5054185;28;20055;-59
2022/07/21 05:42:43;;;;;;;50.88;29.90;;;18.50;99.90;;;;;;5053326;28;20029;-60
2022/07/21 05:45:09;;;;;;;46.90;29.63;;;19.00;99.90;;;;;;5054498;28;20586;-59
2022/07/21 05:47:35;;;;;;;44.75;28.70;;;19.10;99.90;;;;;;5060268;28;20151;-60
2022/07/21 05:50:01;;;;;;;50.67;28.98;;;18.70;99.90;;;;;;5054290;28;20544;-59
2022/07/21 05:52:27;;;;;;;43.50;28.48;;;19.10;99.90;;;;;;5051195;28;20039;-58
2022/07/21 05:54:52;;;;;;;47.13;30.15;;;18.90;99.90;;;;;;5054981;28;20564;-59
2022/07/21 05:57:18;;;;;;;42.33;28.73;;;19.00;99.90;;;;;;5052635;28;20057;-61
2022/07/21 05:59:47;;;;;;;44.83;28.40;;;19.10;99.90;;;;;;5050701;28;20051;-59
2022/07/21 06:02:14;;;;;;;43.83;30.63;;;18.80;99.90;;;;;;5051550;28;20040;-59
2022/07/21 06:04:39;;;;;;;49.75;31.42;;;18.90;99.90;;;;;;5051346;28;20048;-58
2022/07/21 06:07:05;;;;;;;42.88;29.15;;;19.00;99.90;;;;;;5050934;28;20045;-59
2022/07/21 06:09:31;;;;;;;45.72;28.80;;;19.20;99.90;;;;;;5052239;28;20036;-61
2022/07/21 06:11:56;;;;;;;42.28;28.60;;;19.10;99.90;;;;;;5050726;28;21737;-59
2022/07/21 06:14:22;;;;;;;50.97;30.20;;;18.80;99.90;;;;;;5049629;28;20511;-59
2022/07/21 06:16:48;;;;;;;44.45;28.92;;;19.20;99.90;;;;;;5052983;28;20094;-59
2022/07/21 06:19:13;;;;;;;41.13;28.42;;;18.90;99.90;;;;;;5047811;28;20049;-59
2022/07/21 06:21:40;;;;;;;45.03;30.83;;;18.80;99.90;;;;;;5066637;28;20634;-58
2022/07/21 06:24:07;;;;;;;39.70;28.45;;;19.10;99.90;;;;;;5052978;28;20495;-60
2022/07/21 06:26:33;;;;;;;42.33;29.52;;;18.90;99.90;;;;;;5049239;28;20376;-59
2022/07/21 06:28:58;;;;;;;45.70;29.90;;;18.70;99.90;;;;;;5067651;28;20040;-58
2022/07/21 06:31:24;;;;;;;43.55;29.73;;;18.90;99.90;;;;;;5055250;28;20029;-59
2022/07/21 06:33:50;;;;;;;43.42;29.90;;;18.80;99.90;;;;;;5054952;28;20103;-58
2022/07/21 06:36:15;;;;;;;45.05;29.45;;;19.00;99.90;;;;;;5058739;28;20041;-58
2022/07/21 06:38:41;;;;;;;45.80;30.77;;;18.80;99.90;;;;;;5056300;28;20033;-60
2022/07/21 06:41:07;;;;;;;39.22;27.73;;;18.60;99.90;;;;;;5067307;28;20468;-58
2022/07/21 06:43:33;;;;;;;46.33;29.00;;;18.90;99.90;;;;;;5053587;28;20068;-59
2022/07/21 06:45:59;;;;;;;48.60;29.50;;;18.70;99.90;;;;;;5067738;28;20086;-59
2022/07/21 06:48:25;;;;;;;41.92;29.15;;;18.60;99.90;;;;;;5053977;28;20037;-60
2022/07/21 06:50:51;;;;;;;37.80;25.92;;;18.70;99.90;;;;;;5068900;28;20079;-59
2022/07/21 06:53:17;;;;;;;39.22;26.10;;;18.50;99.90;;;;;;5055300;28;20127;-58
2022/07/21 06:55:43;;;;;;;40.08;27.98;;;18.70;99.90;;;;;;5054649;28;20435;-58
2022/07/21 06:58:20;;;;;;;34.08;24.85;;;18.70;99.90;;;;;;5066107;28;20076;-59
2022/07/21 07:00:48;;;;;;;41.38;27.15;;;18.70;99.90;;;;;;5063844;28;20048;-59
2022/07/21 07:03:14;;;;;;;35.42;24.35;;;18.50;99.90;;;;;;5064673;28;20431;-60
2022/07/21 07:05:41;;;;;;;35.33;25.50;;;18.40;99.90;;;;;;5067513;28;20522;-59
2022/07/21 07:08:06;;;;;;;37.00;25.02;;;18.50;99.90;;;;;;5055245;28;20045;-59
2022/07/21 07:10:32;;;;;;;41.75;27.25;;;18.50;99.90;;;;;;5063092;28;20473;-60
2022/07/21 07:12:58;;;;;;;35.28;26.38;;;18.60;99.90;;;;;;5053323;28;20083;-58
2022/07/21 07:15:24;;;;;;;37.50;26.23;;;18.90;99.90;;;;;;5062799;28;20107;-59
2022/07/21 07:17:51;;;;;;;38.28;26.58;;;18.70;99.90;;;;;;5055011;28;20049;-59
2022/07/21 07:20:17;;;;;;;35.58;24.65;;;18.80;99.90;;;;;;5058133;28;20037;-59
2022/07/21 07:22:43;;;;;;;35.63;24.45;;;18.80;99.90;;;;;;5072745;28;20115;-59
2022/07/21 07:25:09;;;;;;;35.85;24.98;;;18.90;99.90;;;;;;5060847;28;20119;-59
2022/07/21 07:27:35;;;;;;;34.33;23.98;;;19.00;99.90;;;;;;5052581;28;20033;-59
2022/07/21 07:30:01;;;;;;;38.05;25.65;;;18.90;99.90;;;;;;5054915;28;20032;-59
2022/07/21 07:32:27;;;;;;;37.47;24.10;;;19.00;99.90;;;;;;5054044;28;20040;-60
2022/07/21 07:34:53;;;;;;;34.35;25.35;;;18.90;99.90;;;;;;5036882;28;20052;-59
2022/07/21 07:37:18;;;;;;;34.97;25.00;;;19.00;99.90;;;;;;5053730;28;20482;-59
2022/07/21 07:39:44;;;;;;;34.75;25.05;;;19.00;99.90;;;;;;5057455;28;20043;-60
2022/07/21 07:42:10;;;;;;;38.47;25.73;;;19.00;99.90;;;;;;5061323;28;20358;-58
2022/07/21 07:44:35;;;;;;;41.15;25.90;;;19.00;99.90;;;;;;5056489;28;20045;-58
2022/07/21 07:47:03;;;;;;;36.92;26.27;;;18.90;99.90;;;;;;5054288;28;20040;-59
2022/07/21 07:49:32;;;;;;;37.63;27.27;;;18.90;99.90;;;;;;5052080;28;20040;-59
2022/07/21 07:51:58;;;;;;;39.25;27.52;;;19.00;99.90;;;;;;5054645;28;20037;-61
2022/07/21 07:54:24;;;;;;;39.40;27.25;;;19.00;99.90;;;;;;5066142;28;20106;-58
2022/07/21 07:56:50;;;;;;;40.13;27.00;;;19.10;99.90;;;;;;5051888;28;20045;-59
2022/07/21 07:59:15;;;;;;;40.33;28.00;;;19.00;99.90;;;;;;5067112;28;20090;-60
2022/07/21 08:01:41;;;;;;;38.97;27.25;;;19.20;99.90;;;;;;5054074;28;20097;-59
2022/07/21 08:04:07;;;;;;;42.85;30.23;;;19.10;99.90;;;;;;5053496;28;20194;-60
2022/07/21 08:06:33;;;;;;;39.33;28.05;;;19.20;99.90;;;;;;5054838;28;20400;-59
2022/07/21 08:08:59;;;;;;;40.17;28.90;;;19.40;99.90;;;;;;5050795;28;20047;-59
2022/07/21 08:11:24;;;;;;;37.70;26.77;;;19.40;99.90;;;;;;5060130;28;20032;-59
2022/07/21 08:13:50;;;;;;;39.72;28.85;;;19.80;99.90;;;;;;5058827;28;20041;-59
2022/07/21 08:16:16;;;;;;;35.53;26.70;;;20.10;99.90;;;;;;5051282;28;20056;-59
2022/07/21 08:18:42;;;;;;;35.78;25.63;;;20.60;99.90;;;;;;5058819;28;20412;-60
2022/07/21 08:21:09;;;;;;;36.22;25.85;;;21.10;99.90;;;;;;5059895;28;20068;-60
2022/07/21 08:23:34;;;;;;;33.90;25.23;;;21.30;99.90;;;;;;5072124;28;20388;-59
2022/07/21 08:26:00;;;;;;;27.48;23.15;;;21.70;99.90;;;;;;5070847;28;20032;-60
2022/07/21 08:28:26;;;;;;;33.17;23.73;;;21.90;99.90;;;;;;5058837;28;20041;-59
2022/07/21 08:30:51;;;;;;;30.55;23.55;;;21.90;99.90;;;;;;5052049;28;20045;-59
2022/07/21 08:33:17;;;;;;;29.17;23.33;;;21.80;99.90;;;;;;5067639;28;20033;-60
2022/07/21 08:35:42;;;;;;;28.95;22.35;;;21.80;99.90;;;;;;5067325;28;20128;-59
2022/07/21 08:38:11;;;;;;;28.00;21.65;;;22.10;99.90;;;;;;5055646;28;20435;-60
2022/07/21 08:40:39;;;;;;;28.05;22.67;;;21.80;99.90;;;;;;5070003;28;20048;-59
2022/07/21 08:43:06;;;;;;;23.58;19.67;;;22.00;99.90;;;;;;5070695;28;20129;-59
2022/07/21 08:45:32;;;;;;;25.08;19.92;;;22.10;99.90;;;;;;5053500;28;20045;-59
2022/07/21 08:47:59;;;;;;;25.23;21.35;;;22.20;99.90;;;;;;5052358;28;20035;-59
2022/07/21 08:50:26;;;;;;;27.63;22.25;;;22.30;99.90;;;;;;5050148;28;20029;-59
2022/07/21 08:52:52;;;;;;;25.42;20.50;;;22.40;99.90;;;;;;5049520;28;20071;-59
2022/07/21 08:55:18;;;;;;;27.67;22.17;;;22.40;99.90;;;;;;5049801;28;20059;-59
2022/07/21 08:57:44;;;;;;;29.92;23.90;;;22.40;99.90;;;;;;5050592;28;20056;-59
2022/07/21 09:00:10;;;;;;;26.63;22.73;;;22.40;99.90;;;;;;5067897;28;20128;-58
2022/07/21 09:02:37;;;;;;;28.60;22.88;;;22.40;99.90;;;;;;5052672;28;20037;-59
2022/07/21 09:05:04;;;;;;;28.70;23.67;;;22.30;99.90;;;;;;5053688;28;20044;-58
2022/07/21 09:07:45;;;;;;;26.25;22.08;;;22.50;99.90;;;;;;5062304;28;20049;-60
2022/07/21 09:10:11;;;;;;;25.83;20.27;;;22.30;99.90;;;;;;5056008;28;20037;-61
2022/07/21 09:12:53;;;;;;;25.88;20.75;;;22.10;99.90;;;;;;5050813;28;20037;-59
2022/07/21 09:15:21;;;;;;;24.25;21.02;;;22.30;99.90;;;;;;5050301;28;20044;-59
2022/07/21 09:18:05;;;;;;;26.20;20.48;;;22.00;99.90;;;;;;5054496;28;20040;-59
2022/07/21 09:20:30;;;;;;;23.92;19.45;;;21.70;99.90;;;;;;5061197;28;20060;-59
2022/07/21 09:23:08;;;;;;;29.05;20.30;;;21.60;99.90;;;;;;5066797;28;20551;-58
2022/07/21 09:25:34;;;;;;;27.33;20.27;;;21.50;99.90;;;;;;5049827;28;20050;-59
2022/07/21 09:28:14;;;;;;;28.83;22.70;;;21.20;99.90;;;;;;5057542;28;20041;-59
2022/07/21 09:30:50;;;;;;;;;;;21.10;99.90;;;;;;5050914;28;20037;-60
2022/07/21 09:33:20;;;;;;;28.05;22.25;;;20.90;99.90;;;;;;5067409;28;19917;-59
2022/07/21 09:36:03;;;;;;;31.08;22.92;;;21.00;99.90;;;;;;5054629;28;20407;-59
2022/07/21 09:38:30;;;;;;;29.13;22.35;;;21.10;99.90;;;;;;5068154;28;20040;-59
2022/07/21 09:41:07;;;;;;;29.05;20.90;;;21.00;99.90;;;;;;5050849;28;22174;-59
2022/07/21 09:43:41;;;;;;;30.25;21.13;;;21.10;99.90;;;;;;5049349;28;20037;-58
2022/07/21 09:46:09;;;;;;;28.40;20.15;;;21.30;99.90;;;;;;5063375;28;20045;-60
2022/07/21 09:48:37;;;;;;;24.48;18.58;;;21.10;99.90;;;;;;5054644;28;20087;-60
2022/07/21 09:51:34;;;;;;;23.95;18.88;;;21.30;99.90;;;;;;5052318;28;20033;-58
2022/07/21 09:54:10;;;;;;;25.17;18.63;;;21.40;99.90;;;;;;5059545;28;20044;-59
2022/07/21 09:56:38;;;;;;;26.23;17.60;;;21.30;99.90;;;;;;5053301;28;20052;-59
2022/07/21 09:59:07;;;;;;;27.92;19.70;;;21.90;99.90;;;;;;5061565;28;20461;-59
2022/07/21 10:01:32;;;;;;;23.27;18.55;;;22.20;99.90;;;;;;5049647;28;20051;-60
2022/07/21 10:03:59;;;;;;;24.83;19.08;;;22.80;99.90;;;;;;5051118;28;20041;-58
2022/07/21 10:06:34;;;;;;;25.52;19.50;;;23.20;99.90;;;;;;5052070;28;20033;-59
2022/07/21 10:09:01;;;;;;;24.20;18.20;;;23.40;99.90;;;;;;5051167;28;20052;-60
2022/07/21 10:11:27;;;;;;;20.27;15.38;;;23.20;99.90;;;;;;5050210;28;20033;-60
2022/07/21 10:13:54;;;;;;;20.30;15.45;;;23.40;99.90;;;;;;5050516;28;20041;-60
2022/07/21 10:16:19;;;;;;;23.20;16.75;;;23.50;99.90;;;;;;5054721;28;20037;-60
2022/07/21 10:19:05;;;;;;;24.02;17.38;;;23.50;95.70;;;;;;5051805;28;20400;-60
2022/07/21 10:21:30;;;;;;;23.70;17.55;;;23.40;97.50;;;;;;5048663;28;20033;-60
2022/07/21 10:23:56;;;;;;;22.55;17.92;;;23.60;97.80;;;;;;5058638;28;20074;-60
2022/07/21 10:26:22;;;;;;;23.02;17.17;;;23.60;98.70;;;;;;5063107;28;20098;-61
2022/07/21 10:28:48;;;;;;;21.88;17.42;;;23.50;97.80;;;;;;5050855;28;20449;-60
2022/07/21 10:31:22;;;;;;;25.10;18.52;;;23.30;99.80;;;;;;5048947;28;20057;-60
2022/07/21 10:33:48;;;;;;;21.48;17.70;;;22.90;98.90;;;;;;5050688;28;20041;-59
2022/07/21 10:36:26;;;;;;;27.75;18.70;;;22.50;99.90;;;;;;5049003;28;20163;-61
2022/07/21 10:39:23;;;;;;;26.48;19.50;;;22.70;98.40;;;;;;5049454;28;20488;-60
2022/07/21 10:41:57;;;;;;;27.98;19.60;;;22.70;97.30;;;;;;5048358;28;20048;-59
2022/07/21 10:44:28;;;;;;;28.15;19.52;;;22.30;98.30;;;;;;5061997;28;20505;-60
2022/07/21 10:47:07;;;;;;;28.00;21.75;;;21.90;99.90;;;;;;5048343;28;20048;-59
2022/07/21 10:49:48;;;;;;;30.58;21.35;;;21.70;99.90;;;;;;5050368;28;20033;-59
2022/07/21 10:52:45;;;;;;;31.35;21.90;;;21.20;99.90;;;;;;5047113;28;20048;-60
2022/07/21 10:55:16;;;;;;;33.40;23.25;;;20.30;99.90;;;;;;5041305;28;20052;-61
2022/07/21 10:57:44;;;;;;;38.45;26.00;;;20.20;99.90;;;;;;5048975;28;20065;-60
2022/07/21 11:00:22;;;;;;;32.97;22.77;;;19.90;99.90;;;;;;5065421;28;20086;-61
2022/07/21 11:02:52;;;;;;;38.85;25.13;;;19.60;99.90;;;;;;5054679;28;20066;-62
2022/07/21 11:05:18;;;;;;;42.10;25.50;;;19.50;99.90;;;;;;5050316;28;20451;-60
2022/07/21 11:08:12;;;;;;;41.03;26.30;;;19.30;99.90;;;;;;5039277;28;20038;-60
2022/07/21 11:10:41;;;;;;;38.75;25.75;;;19.40;99.90;;;;;;5045403;28;20555;-62
2022/07/21 11:13:07;;;;;;;40.30;27.10;;;19.40;99.90;;;;;;5057775;28;20049;-60
2022/07/21 11:15:50;;;;;;;41.72;27.08;;;19.40;99.90;;;;;;5056675;28;20045;-60
2022/07/21 11:18:21;;;;;;;42.33;28.17;;;19.70;99.90;;;;;;5063931;28;20045;-60
2022/07/21 11:21:09;;;;;;;44.95;28.27;;;19.60;99.90;;;;;;5052906;28;20419;-60
2022/07/21 11:23:41;;;;;;;39.88;27.60;;;19.80;99.90;;;;;;5066395;28;20032;-60
2022/07/21 11:26:09;;;;;;;44.13;28.85;;;19.80;99.90;;;;;;5038484;28;20044;-62
2022/07/21 11:28:34;;;;;;;43.35;29.02;;;19.90;99.90;;;;;;5057301;28;20396;-59
2022/07/21 11:31:16;;;;;;;44.17;28.73;;;19.90;99.90;;;;;;5053724;28;20059;-62
2022/07/21 11:33:45;;;;;;;45.58;29.05;;;20.10;99.90;;;;;;5059998;28;20080;-61
2022/07/21 11:36:30;;;;;;;47.78;28.73;;;20.20;99.90;;;;;;5058435;28;20297;-61
2022/07/21 11:39:05;;;;;;;43.70;29.38;;;20.30;99.90;;;;;;5065066;28;20090;-62
2022/07/21 11:41:31;;;;;;;43.13;29.02;;;20.30;99.90;;;;;;5060154;28;20033;-60
2022/07/21 11:43:57;;;;;;;44.63;28.98;;;20.50;99.90;;;;;;5058357;28;20101;-59
2022/07/21 11:46:23;;;;;;;47.25;28.50;;;20.70;99.90;;;;;;5064705;28;20064;-60
2022/07/21 11:48:59;;;;;;;41.92;29.63;;;21.00;99.90;;;;;;5061275;28;20092;-59
2022/07/21 11:51:25;;;;;;;41.10;27.23;;;21.20;99.90;;;;;;5056387;28;20503;-60
2022/07/21 11:53:50;;;;;;;42.40;28.13;;;21.50;99.90;;;;;;5052609;28;20045;-60
2022/07/21 11:56:16;;;;;;;40.75;28.25;;;21.60;99.90;;;;;;5056272;28;20040;-59
2022/07/21 11:58:43;;;;;;;38.58;26.42;;;21.80;99.90;;;;;;5054519;28;20055;-60
2022/07/21 12:01:09;;;;;;;41.65;27.30;;;21.80;99.90;;;;;;5063169;28;20048;-61
2022/07/21 12:03:47;;;;;;;40.75;27.23;;;21.90;99.90;;;;;;5062095;28;20033;-60
2022/07/21 12:06:13;;;;;;;40.58;28.75;;;22.10;99.90;;;;;;5061190;28;20064;-60
2022/07/21 12:08:39;;;;;;;41.20;29.25;;;22.10;99.90;;;;;;5051262;28;20072;-60
2022/07/21 12:11:10;;;;;;;42.15;28.02;;;21.90;99.90;;;;;;5066118;28;20105;-60
2022/07/21 12:13:56;;;;;;;39.13;26.17;;;21.80;99.90;;;;;;5060455;28;20112;-61
2022/07/21 12:16:22;;;;;;;35.13;24.02;;;21.40;99.90;;;;;;5059114;28;20687;-60
2022/07/21 12:18:48;;;;;;;32.25;23.02;;;21.20;99.90;;;;;;5058803;28;20028;-59
2022/07/21 12:21:14;;;;;;;28.80;20.35;;;21.00;99.90;;;;;;5059027;28;20033;-59
2022/07/21 12:23:39;;;;;;;29.17;19.45;;;20.70;99.90;;;;;;5059305;28;20068;-60
2022/07/21 12:26:05;;;;;;;25.88;18.90;;;20.60;99.90;;;;;;5056591;28;20045;-60
2022/07/21 12:28:48;;;;;;;23.85;18.45;;;20.40;99.90;;;;;;5060632;28;20048;-59
2022/07/21 12:31:20;;;;;;;25.65;18.13;;;20.20;99.90;;;;;;5058854;28;20041;-60
2022/07/21 12:33:46;;;;;;;25.17;17.45;;;20.20;99.90;;;;;;5049623;28;20029;-60
2022/07/21 12:36:12;;;;;;;20.13;14.98;;;20.40;99.90;;;;;;5048272;28;20528;-61